sensor_id;sensor_type;location;lat;lon;timestamp;temperature;humidity
32334;DHT22;18810;53.040;8.850;2022-10-16T00:02:45;13.70;99.90
32334;DHT22;18810;53.040;8.850;2022-10-16T00:29:31;13.50;99.90
32334;DHT22;18810;53.040;8.850;2022-10-16T00:36:48;13.50;99.90
32334;DHT22;18810;53.040;8.850;2022-10-16T00:47:32;13.10;99.90
32334;DHT22;18810;53.040;8.850;2022-10-16T00:50:06;13.30;99.90
32334;DHT22;18810;53.040;8.850;2022-10-16T00:57:25;13.20;99.90
32334;DHT22;18810;53.040;8.850;2022-10-16T01:02:17;13.10;99.90
32334;DHT22;18810;53.040;8.850;2022-10-16T01:04:48;13.20;99.90
32334;DHT22;18810;53.040;8.850;2022-10-16T01:15:33;13.00;99.90
32334;DHT22;18810;53.040;8.850;2022-10-16T01:20:30;13.00;99.90
32334;DHT22;18810;53.040;8.850;2022-10-16T01:31:11;12.90;99.90
32334;DHT22;18810;53.040;8.850;2022-10-16T01:33:47;12.90;99.90
32334;DHT22;18810;53.040;8.850;2022-10-16T01:36:22;12.80;99.90
32334;DHT22;18810;53.040;8.850;2022-10-16T01:38:51;12.80;99.90
32334;DHT22;18810;53.040;8.850;2022-10-16T01:41:49;12.80;99.90
32334;DHT22;18810;53.040;8.850;2022-10-16T01:44:21;13.30;99.90
32334;DHT22;18810;53.040;8.850;2022-10-16T01:46:50;12.80;99.90
32334;DHT22;18810;53.040;8.850;2022-10-16T01:51:45;12.70;99.90
32334;DHT22;18810;53.040;8.850;2022-10-16T01:54:13;12.70;99.90
32334;DHT22;18810;53.040;8.850;2022-10-16T01:56:41;12.70;99.90
32334;DHT22;18810;53.040;8.850;2022-10-16T01:59:12;12.70;99.90
32334;DHT22;18810;53.040;8.850;2022-10-16T02:01:42;12.70;99.90
32334;DHT22;18810;53.040;8.850;2022-10-16T02:04:16;15.00;99.90
32334;DHT22;18810;53.040;8.850;2022-10-16T02:14:05;12.60;99.90
32334;DHT22;18810;53.040;8.850;2022-10-16T02:16:40;12.80;99.90
32334;DHT22;18810;53.040;8.850;2022-10-16T02:19:06;12.50;99.90
32334;DHT22;18810;53.040;8.850;2022-10-16T02:21:49;13.30;99.90
32334;DHT22;18810;53.040;8.850;2022-10-16T02:24:29;12.60;99.90
32334;DHT22;18810;53.040;8.850;2022-10-16T02:29:42;12.40;99.90
32334;DHT22;18810;53.040;8.850;2022-10-16T02:32:12;12.40;99.90
32334;DHT22;18810;53.040;8.850;2022-10-16T02:34:40;12.40;99.90
32334;DHT22;18810;53.040;8.850;2022-10-16T02:39:33;12.40;99.90
32334;DHT22;18810;53.040;8.850;2022-10-16T02:45:23;12.40;99.90
32334;DHT22;18810;53.040;8.850;2022-10-16T02:50:15;12.30;99.90
32334;DHT22;18810;53.040;8.850;2022-10-16T03:12:12;12.20;99.90
32334;DHT22;18810;53.040;8.850;2022-10-16T03:31:40;12.20;99.90
32334;DHT22;18810;53.040;8.850;2022-10-16T03:41:24;12.30;99.90
32334;DHT22;18810;53.040;8.850;2022-10-16T03:54:29;12.40;99.90
32334;DHT22;18810;53.040;8.850;2022-10-16T03:59:21;12.40;99.90
32334;DHT22;18810;53.040;8.850;2022-10-16T04:04:12;12.40;99.90
32334;DHT22;18810;53.040;8.850;2022-10-16T04:13:56;12.50;99.90
32334;DHT22;18810;53.040;8.850;2022-10-16T04:16:21;12.30;99.90
32334;DHT22;18810;53.040;8.850;2022-10-16T04:26:05;12.50;99.90
32334;DHT22;18810;53.040;8.850;2022-10-16T04:33:23;12.50;99.90
32334;DHT22;18810;53.040;8.850;2022-10-16T04:40:42;12.70;99.90
32334;DHT22;18810;53.040;8.850;2022-10-16T04:43:17;12.60;99.90
32334;DHT22;18810;53.040;8.850;2022-10-16T04:53:01;12.50;99.90
32334;DHT22;18810;53.040;8.850;2022-10-16T05:00:19;12.60;99.90
32334;DHT22;18810;53.040;8.850;2022-10-16T05:05:11;12.60;99.90
32334;DHT22;18810;53.040;8.850;2022-10-16T05:10:03;12.60;99.90
32334;DHT22;18810;53.040;8.850;2022-10-16T05:12:29;12.60;99.90
32334;DHT22;18810;53.040;8.850;2022-10-16T05:24:42;12.60;99.90
32334;DHT22;18810;53.040;8.850;2022-10-16T05:29:34;12.70;99.90
32334;DHT22;18810;53.040;8.850;2022-10-16T05:34:26;12.80;99.90
32334;DHT22;18810;53.040;8.850;2022-10-16T05:36:52;13.40;99.90
32334;DHT22;18810;53.040;8.850;2022-10-16T05:51:27;12.90;99.90
32334;DHT22;18810;53.040;8.850;2022-10-16T05:53:53;13.20;99.90
32334;DHT22;18810;53.040;8.850;2022-10-16T06:01:13;13.00;99.90
32334;DHT22;18810;53.040;8.850;2022-10-16T06:06:14;13.20;99.90
32334;DHT22;18810;53.040;8.850;2022-10-16T06:08:41;13.00;99.90
32334;DHT22;18810;53.040;8.850;2022-10-16T06:11:09;13.00;99.90
32334;DHT22;18810;53.040;8.850;2022-10-16T06:16:02;13.00;99.90
32334;DHT22;18810;53.040;8.850;2022-10-16T06:20:55;13.00;99.90
32334;DHT22;18810;53.040;8.850;2022-10-16T06:42:55;13.30;99.90
32334;DHT22;18810;53.040;8.850;2022-10-16T06:55:06;13.60;99.90
32334;DHT22;18810;53.040;8.850;2022-10-16T07:12:07;14.30;99.90
32334;DHT22;18810;53.040;8.850;2022-10-16T07:19:25;14.40;99.90
32334;DHT22;18810;53.040;8.850;2022-10-16T07:24:17;14.50;99.90
32334;DHT22;18810;53.040;8.850;2022-10-16T07:26:44;14.50;99.90
32334;DHT22;18810;53.040;8.850;2022-10-16T07:29:16;14.70;99.90
32334;DHT22;18810;53.040;8.850;2022-10-16T07:31:43;15.10;99.90
32334;DHT22;18810;53.040;8.850;2022-10-16T07:34:10;15.20;99.90
32334;DHT22;18810;53.040;8.850;2022-10-16T08:01:11;15.20;99.90
32334;DHT22;18810;53.040;8.850;2022-10-16T08:06:04;15.30;99.90
32334;DHT22;18810;53.040;8.850;2022-10-16T08:18:15;16.10;99.90
32334;DHT22;18810;53.040;8.850;2022-10-16T08:28:07;16.10;99.90
32334;DHT22;18810;53.040;8.850;2022-10-16T08:35:25;16.20;99.90
32334;DHT22;18810;53.040;8.850;2022-10-16T08:40:20;16.00;99.90
32334;DHT22;18810;53.040;8.850;2022-10-16T08:46:03;16.30;99.90
32334;DHT22;18810;53.040;8.850;2022-10-16T08:48:53;16.50;99.90
32334;DHT22;18810;53.040;8.850;2022-10-16T08:51:23;16.80;99.90
32334;DHT22;18810;53.040;8.850;2022-10-16T08:53:57;18.10;99.90
32334;DHT22;18810;53.040;8.850;2022-10-16T08:56:24;17.10;99.90
32334;DHT22;18810;53.040;8.850;2022-10-16T08:58:52;17.10;99.90
32334;DHT22;18810;53.040;8.850;2022-10-16T09:01:19;17.20;99.90
32334;DHT22;18810;53.040;8.850;2022-10-16T09:06:46;17.30;99.90
32334;DHT22;18810;53.040;8.850;2022-10-16T09:12:12;17.70;99.90
32334;DHT22;18810;53.040;8.850;2022-10-16T09:15:03;18.20;99.90
32334;DHT22;18810;53.040;8.850;2022-10-16T09:23:10;18.50;99.90
32334;DHT22;18810;53.040;8.850;2022-10-16T09:25:39;18.50;99.90
32334;DHT22;18810;53.040;8.850;2022-10-16T09:28:08;19.10;99.90
32334;DHT22;18810;53.040;8.850;2022-10-16T09:33:01;19.50;99.90
32334;DHT22;18810;53.040;8.850;2022-10-16T09:40:27;19.10;99.90
32334;DHT22;18810;53.040;8.850;2022-10-16T09:43:01;19.20;99.90
32334;DHT22;18810;53.040;8.850;2022-10-16T09:47:53;19.20;99.90
32334;DHT22;18810;53.040;8.850;2022-10-16T09:50:27;19.20;99.90
32334;DHT22;18810;53.040;8.850;2022-10-16T09:53:12;19.40;99.90
32334;DHT22;18810;53.040;8.850;2022-10-16T09:55:49;19.30;99.90
32334;DHT22;18810;53.040;8.850;2022-10-16T09:58:15;19.20;99.90
32334;DHT22;18810;53.040;8.850;2022-10-16T10:00:42;18.70;99.90
32334;DHT22;18810;53.040;8.850;2022-10-16T10:03:39;18.60;99.90
32334;DHT22;18810;53.040;8.850;2022-10-16T10:06:23;18.30;99.90
32334;DHT22;18810;53.040;8.850;2022-10-16T10:14:12;19.70;99.90
32334;DHT22;18810;53.040;8.850;2022-10-16T10:16:40;19.70;99.90
32334;DHT22;18810;53.040;8.850;2022-10-16T10:19:20;20.40;99.90
32334;DHT22;18810;53.040;8.850;2022-10-16T10:21:47;20.40;99.90
32334;DHT22;18810;53.040;8.850;2022-10-16T10:24:14;20.70;99.90
32334;DHT22;18810;53.040;8.850;2022-10-16T10:27:03;20.70;99.90
32334;DHT22;18810;53.040;8.850;2022-10-16T10:32:34;21.40;99.90
32334;DHT22;18810;53.040;8.850;2022-10-16T10:35:38;20.90;99.90
32334;DHT22;18810;53.040;8.850;2022-10-16T10:40:50;20.70;99.90
32334;DHT22;18810;53.040;8.850;2022-10-16T10:43:44;20.50;99.90
32334;DHT22;18810;53.040;8.850;2022-10-16T10:49:12;21.10;99.90
32334;DHT22;18810;53.040;8.850;2022-10-16T10:57:16;20.50;99.90
32334;DHT22;18810;53.040;8.850;2022-10-16T10:59:53;20.40;99.90
32334;DHT22;18810;53.040;8.850;2022-10-16T11:05:44;21.40;99.90
32334;DHT22;18810;53.040;8.850;2022-10-16T11:08:20;21.20;99.90
32334;DHT22;18810;53.040;8.850;2022-10-16T11:11:00;20.90;99.90
32334;DHT22;18810;53.040;8.850;2022-10-16T11:13:42;20.90;99.90
32334;DHT22;18810;53.040;8.850;2022-10-16T11:16:32;21.00;99.90
32334;DHT22;18810;53.040;8.850;2022-10-16T11:19:02;21.00;99.90
32334;DHT22;18810;53.040;8.850;2022-10-16T11:21:33;20.80;99.90
32334;DHT22;18810;53.040;8.850;2022-10-16T11:24:33;21.60;99.90
32334;DHT22;18810;53.040;8.850;2022-10-16T11:27:06;22.10;99.90
32334;DHT22;18810;53.040;8.850;2022-10-16T11:29:35;22.40;99.90
32334;DHT22;18810;53.040;8.850;2022-10-16T11:32:25;22.70;99.90
32334;DHT22;18810;53.040;8.850;2022-10-16T11:34:59;22.60;99.90
32334;DHT22;18810;53.040;8.850;2022-10-16T11:37:30;22.40;99.90
32334;DHT22;18810;53.040;8.850;2022-10-16T11:40:03;22.30;99.90
32334;DHT22;18810;53.040;8.850;2022-10-16T11:42:36;22.60;99.90
32334;DHT22;18810;53.040;8.850;2022-10-16T11:47:57;22.90;98.90
32334;DHT22;18810;53.040;8.850;2022-10-16T11:50:43;22.10;99.70
32334;DHT22;18810;53.040;8.850;2022-10-16T11:53:31;21.40;99.90
32334;DHT22;18810;53.040;8.850;2022-10-16T11:56:00;21.20;99.90
32334;DHT22;18810;53.040;8.850;2022-10-16T11:58:33;21.10;99.90
32334;DHT22;18810;53.040;8.850;2022-10-16T12:01:31;21.80;99.90
32334;DHT22;18810;53.040;8.850;2022-10-16T12:06:43;22.00;99.90
32334;DHT22;18810;53.040;8.850;2022-10-16T12:09:25;22.90;99.40
32334;DHT22;18810;53.040;8.850;2022-10-16T12:11:51;23.80;98.40
32334;DHT22;18810;53.040;8.850;2022-10-16T12:14:20;25.10;96.30
32334;DHT22;18810;53.040;8.850;2022-10-16T12:19:23;23.50;95.90
32334;DHT22;18810;53.040;8.850;2022-10-16T12:21:50;23.40;96.20
32334;DHT22;18810;53.040;8.850;2022-10-16T12:24:38;22.80;97.00
32334;DHT22;18810;53.040;8.850;2022-10-16T12:27:30;22.10;98.10
32334;DHT22;18810;53.040;8.850;2022-10-16T12:30:04;21.10;99.40
32334;DHT22;18810;53.040;8.850;2022-10-16T12:32:36;21.20;99.50
32334;DHT22;18810;53.040;8.850;2022-10-16T12:35:06;21.00;98.90
32334;DHT22;18810;53.040;8.850;2022-10-16T12:37:42;20.90;99.20
32334;DHT22;18810;53.040;8.850;2022-10-16T12:40:24;20.50;99.90
32334;DHT22;18810;53.040;8.850;2022-10-16T12:42:51;20.50;99.20
32334;DHT22;18810;53.040;8.850;2022-10-16T12:45:32;20.30;99.90
32334;DHT22;18810;53.040;8.850;2022-10-16T12:48:00;20.20;99.90
32334;DHT22;18810;53.040;8.850;2022-10-16T12:50:36;20.20;99.90
32334;DHT22;18810;53.040;8.850;2022-10-16T12:53:04;20.40;99.70
32334;DHT22;18810;53.040;8.850;2022-10-16T12:56:18;20.30;99.80
32334;DHT22;18810;53.040;8.850;2022-10-16T13:01:50;20.00;99.90
32334;DHT22;18810;53.040;8.850;2022-10-16T13:15:36;22.20;97.30
32334;DHT22;18810;53.040;8.850;2022-10-16T13:17:58;23.30;95.70
32334;DHT22;18810;53.040;8.850;2022-10-16T13:20:28;23.30;95.50
32334;DHT22;18810;53.040;8.850;2022-10-16T13:23:21;23.10;95.50
32334;DHT22;18810;53.040;8.850;2022-10-16T13:28:42;23.10;95.20
32334;DHT22;18810;53.040;8.850;2022-10-16T13:31:36;21.90;96.50
32334;DHT22;18810;53.040;8.850;2022-10-16T13:34:03;22.10;96.80
32334;DHT22;18810;53.040;8.850;2022-10-16T13:36:35;22.30;96.00
32334;DHT22;18810;53.040;8.850;2022-10-16T13:41:35;22.90;95.90
32334;DHT22;18810;53.040;8.850;2022-10-16T13:44:01;22.90;95.70
32334;DHT22;18810;53.040;8.850;2022-10-16T13:46:26;23.00;95.40
32334;DHT22;18810;53.040;8.850;2022-10-16T13:51:27;22.60;95.30
32334;DHT22;18810;53.040;8.850;2022-10-16T13:53:55;22.50;96.10
32334;DHT22;18810;53.040;8.850;2022-10-16T13:56:24;22.60;95.50
32334;DHT22;18810;53.040;8.850;2022-10-16T14:01:48;22.10;95.80
32334;DHT22;18810;53.040;8.850;2022-10-16T14:04:15;22.20;95.30
32334;DHT22;18810;53.040;8.850;2022-10-16T14:06:46;22.30;95.30
32334;DHT22;18810;53.040;8.850;2022-10-16T14:11:49;22.70;94.80
32334;DHT22;18810;53.040;8.850;2022-10-16T14:14:18;22.80;94.50
32334;DHT22;18810;53.040;8.850;2022-10-16T14:16:44;22.30;94.90
32334;DHT22;18810;53.040;8.850;2022-10-16T14:19:23;21.70;95.80
32334;DHT22;18810;53.040;8.850;2022-10-16T14:21:51;21.70;96.00
32334;DHT22;18810;53.040;8.850;2022-10-16T14:24:33;21.60;95.50
32334;DHT22;18810;53.040;8.850;2022-10-16T14:27:00;21.50;95.70
32334;DHT22;18810;53.040;8.850;2022-10-16T14:29:28;21.40;95.70
32334;DHT22;18810;53.040;8.850;2022-10-16T14:32:24;21.20;96.10
32334;DHT22;18810;53.040;8.850;2022-10-16T14:34:54;21.10;96.30
32334;DHT22;18810;53.040;8.850;2022-10-16T14:37:29;20.70;96.60
32334;DHT22;18810;53.040;8.850;2022-10-16T14:39:55;20.50;97.20
32334;DHT22;18810;53.040;8.850;2022-10-16T14:42:23;20.60;97.00
32334;DHT22;18810;53.040;8.850;2022-10-16T14:44:51;20.70;97.10
32334;DHT22;18810;53.040;8.850;2022-10-16T14:47:19;21.00;97.00
32334;DHT22;18810;53.040;8.850;2022-10-16T14:49:52;21.50;96.90
32334;DHT22;18810;53.040;8.850;2022-10-16T14:52:20;22.00;95.80
32334;DHT22;18810;53.040;8.850;2022-10-16T14:54:49;22.50;95.40
32334;DHT22;18810;53.040;8.850;2022-10-16T14:57:22;22.70;94.80
32334;DHT22;18810;53.040;8.850;2022-10-16T14:59:48;22.80;95.10
32334;DHT22;18810;53.040;8.850;2022-10-16T15:02:29;23.00;94.90
32334;DHT22;18810;53.040;8.850;2022-10-16T15:04:56;23.20;94.20
32334;DHT22;18810;53.040;8.850;2022-10-16T15:07:22;23.30;94.10
32334;DHT22;18810;53.040;8.850;2022-10-16T15:09:47;23.00;94.10
32334;DHT22;18810;53.040;8.850;2022-10-16T15:12:13;22.50;94.50
32334;DHT22;18810;53.040;8.850;2022-10-16T15:14:39;22.30;94.90
32334;DHT22;18810;53.040;8.850;2022-10-16T15:17:04;22.20;95.10
32334;DHT22;18810;53.040;8.850;2022-10-16T15:19:30;22.00;95.00
32334;DHT22;18810;53.040;8.850;2022-10-16T15:21:56;21.60;95.60
32334;DHT22;18810;53.040;8.850;2022-10-16T15:24:22;21.20;96.40
32334;DHT22;18810;53.040;8.850;2022-10-16T15:26:47;20.90;96.70
32334;DHT22;18810;53.040;8.850;2022-10-16T15:29:14;20.60;96.90
32334;DHT22;18810;53.040;8.850;2022-10-16T15:31:40;20.40;97.10
32334;DHT22;18810;53.040;8.850;2022-10-16T15:34:09;20.20;97.60
32334;DHT22;18810;53.040;8.850;2022-10-16T15:36:36;20.10;98.00
32334;DHT22;18810;53.040;8.850;2022-10-16T15:39:13;19.90;98.20
32334;DHT22;18810;53.040;8.850;2022-10-16T15:44:05;19.80;98.50
32334;DHT22;18810;53.040;8.850;2022-10-16T15:46:30;20.20;99.50
32334;DHT22;18810;53.040;8.850;2022-10-16T15:48:57;19.50;99.40
32334;DHT22;18810;53.040;8.850;2022-10-16T15:51:24;19.30;99.60
32334;DHT22;18810;53.040;8.850;2022-10-16T15:58:44;19.20;99.90
32334;DHT22;18810;53.040;8.850;2022-10-16T16:01:10;19.20;99.90
32334;DHT22;18810;53.040;8.850;2022-10-16T16:03:38;19.00;99.90
32334;DHT22;18810;53.040;8.850;2022-10-16T16:06:08;19.00;99.90
32334;DHT22;18810;53.040;8.850;2022-10-16T16:11:07;18.90;99.90
32334;DHT22;18810;53.040;8.850;2022-10-16T16:13:33;18.90;99.90
32334;DHT22;18810;53.040;8.850;2022-10-16T16:15:59;18.70;99.90
32334;DHT22;18810;53.040;8.850;2022-10-16T16:18:25;18.80;99.90
32334;DHT22;18810;53.040;8.850;2022-10-16T16:20:51;18.80;99.90
32334;DHT22;18810;53.040;8.850;2022-10-16T16:28:10;18.50;99.90
32334;DHT22;18810;53.040;8.850;2022-10-16T16:30:39;18.40;99.90
32334;DHT22;18810;53.040;8.850;2022-10-16T16:35:31;18.30;99.90
32334;DHT22;18810;53.040;8.850;2022-10-16T16:40:23;18.10;99.90
32334;DHT22;18810;53.040;8.850;2022-10-16T16:42:49;18.00;99.90
32334;DHT22;18810;53.040;8.850;2022-10-16T16:47:40;17.90;99.90
32334;DHT22;18810;53.040;8.850;2022-10-16T16:50:07;17.80;99.90
32334;DHT22;18810;53.040;8.850;2022-10-16T16:52:34;17.70;99.90
32334;DHT22;18810;53.040;8.850;2022-10-16T16:55:00;17.60;99.90
32334;DHT22;18810;53.040;8.850;2022-10-16T16:57:26;17.60;99.90
32334;DHT22;18810;53.040;8.850;2022-10-16T17:02:20;17.30;99.90
32334;DHT22;18810;53.040;8.850;2022-10-16T17:04:45;17.20;99.90
32334;DHT22;18810;53.040;8.850;2022-10-16T17:07:11;17.20;99.90
32334;DHT22;18810;53.040;8.850;2022-10-16T17:09:37;17.20;99.90
32334;DHT22;18810;53.040;8.850;2022-10-16T17:12:14;17.00;99.90
32334;DHT22;18810;53.040;8.850;2022-10-16T17:14:40;16.80;99.90
32334;DHT22;18810;53.040;8.850;2022-10-16T17:17:06;16.70;99.90
32334;DHT22;18810;53.040;8.850;2022-10-16T17:19:32;16.60;99.90
32334;DHT22;18810;53.040;8.850;2022-10-16T17:21:57;16.70;99.90
32334;DHT22;18810;53.040;8.850;2022-10-16T17:24:23;16.50;99.90
32334;DHT22;18810;53.040;8.850;2022-10-16T17:26:49;16.90;99.90
32334;DHT22;18810;53.040;8.850;2022-10-16T17:29:16;16.40;99.90
32334;DHT22;18810;53.040;8.850;2022-10-16T17:34:09;16.20;99.90
32334;DHT22;18810;53.040;8.850;2022-10-16T17:36:37;16.10;99.90
32334;DHT22;18810;53.040;8.850;2022-10-16T17:39:06;16.00;99.90
32334;DHT22;18810;53.040;8.850;2022-10-16T17:41:33;16.00;99.90
32334;DHT22;18810;53.040;8.850;2022-10-16T17:48:53;15.90;99.90
32334;DHT22;18810;53.040;8.850;2022-10-16T17:51:24;15.80;99.90
32334;DHT22;18810;53.040;8.850;2022-10-16T17:53:58;16.60;99.90
32334;DHT22;18810;53.040;8.850;2022-10-16T17:56:25;15.70;99.90
32334;DHT22;18810;53.040;8.850;2022-10-16T17:58:54;15.70;99.90
32334;DHT22;18810;53.040;8.850;2022-10-16T18:01:29;15.60;99.90
32334;DHT22;18810;53.040;8.850;2022-10-16T18:03:57;15.50;99.90
32334;DHT22;18810;53.040;8.850;2022-10-16T18:08:51;15.20;99.90
32334;DHT22;18810;53.040;8.850;2022-10-16T18:11:40;15.20;99.90
32334;DHT22;18810;53.040;8.850;2022-10-16T18:14:06;15.20;99.90
32334;DHT22;18810;53.040;8.850;2022-10-16T18:16:32;15.20;99.90
32334;DHT22;18810;53.040;8.850;2022-10-16T18:18:58;17.10;99.90
32334;DHT22;18810;53.040;8.850;2022-10-16T18:21:24;15.20;99.90
32334;DHT22;18810;53.040;8.850;2022-10-16T18:23:53;15.10;99.90
32334;DHT22;18810;53.040;8.850;2022-10-16T18:26:20;15.10;99.90
32334;DHT22;18810;53.040;8.850;2022-10-16T18:31:14;15.00;99.90
32334;DHT22;18810;53.040;8.850;2022-10-16T18:33:42;15.00;99.90
32334;DHT22;18810;53.040;8.850;2022-10-16T18:36:12;14.90;99.90
32334;DHT22;18810;53.040;8.850;2022-10-16T18:38:38;15.30;99.90
32334;DHT22;18810;53.040;8.850;2022-10-16T18:41:05;14.80;99.90
32334;DHT22;18810;53.040;8.850;2022-10-16T18:43:32;14.80;99.90
32334;DHT22;18810;53.040;8.850;2022-10-16T18:46:00;14.80;99.90
32334;DHT22;18810;53.040;8.850;2022-10-16T18:55:51;14.70;99.90
32334;DHT22;18810;53.040;8.850;2022-10-16T19:10:27;14.70;99.90
32334;DHT22;18810;53.040;8.850;2022-10-16T19:12:53;14.80;99.90
32334;DHT22;18810;53.040;8.850;2022-10-16T19:15:18;14.80;99.90
32334;DHT22;18810;53.040;8.850;2022-10-16T19:17:46;14.70;99.90
32334;DHT22;18810;53.040;8.850;2022-10-16T19:20:12;14.70;99.90
32334;DHT22;18810;53.040;8.850;2022-10-16T19:25:18;14.80;99.90
32334;DHT22;18810;53.040;8.850;2022-10-16T19:27:47;14.80;99.90
32334;DHT22;18810;53.040;8.850;2022-10-16T19:32:39;14.60;99.90
32334;DHT22;18810;53.040;8.850;2022-10-16T19:35:04;14.50;99.90
32334;DHT22;18810;53.040;8.850;2022-10-16T19:37:31;14.50;99.90
32334;DHT22;18810;53.040;8.850;2022-10-16T19:39:57;14.70;99.90
32334;DHT22;18810;53.040;8.850;2022-10-16T19:47:15;14.40;99.90
32334;DHT22;18810;53.040;8.850;2022-10-16T19:52:06;14.50;99.90
32334;DHT22;18810;53.040;8.850;2022-10-16T19:54:32;14.50;99.90
32334;DHT22;18810;53.040;8.850;2022-10-16T19:59:26;14.40;99.90
32334;DHT22;18810;53.040;8.850;2022-10-16T20:04:17;14.30;99.90
32334;DHT22;18810;53.040;8.850;2022-10-16T20:11:36;14.20;99.90
32334;DHT22;18810;53.040;8.850;2022-10-16T20:14:03;14.30;99.90
32334;DHT22;18810;53.040;8.850;2022-10-16T20:16:29;14.40;99.90
32334;DHT22;18810;53.040;8.850;2022-10-16T20:21:28;14.40;99.90
32334;DHT22;18810;53.040;8.850;2022-10-16T20:26:23;14.30;99.90
32334;DHT22;18810;53.040;8.850;2022-10-16T20:28:50;14.40;99.90
32334;DHT22;18810;53.040;8.850;2022-10-16T20:31:26;14.40;99.90
32334;DHT22;18810;53.040;8.850;2022-10-16T20:33:55;14.50;99.90
32334;DHT22;18810;53.040;8.850;2022-10-16T20:36:22;14.40;99.90
32334;DHT22;18810;53.040;8.850;2022-10-16T20:38:48;16.50;99.90
32334;DHT22;18810;53.040;8.850;2022-10-16T20:41:14;14.20;99.90
32334;DHT22;18810;53.040;8.850;2022-10-16T20:43:45;14.20;99.90
32334;DHT22;18810;53.040;8.850;2022-10-16T20:46:13;14.20;99.90
32334;DHT22;18810;53.040;8.850;2022-10-16T20:48:39;15.40;99.90
32334;DHT22;18810;53.040;8.850;2022-10-16T20:51:21;14.20;99.90
32334;DHT22;18810;53.040;8.850;2022-10-16T20:54:01;14.20;99.90
32334;DHT22;18810;53.040;8.850;2022-10-16T20:56:29;14.20;99.90
32334;DHT22;18810;53.040;8.850;2022-10-16T21:01:24;14.10;99.90
32334;DHT22;18810;53.040;8.850;2022-10-16T21:03:59;14.10;99.90
32334;DHT22;18810;53.040;8.850;2022-10-16T21:06:26;14.10;99.90
32334;DHT22;18810;53.040;8.850;2022-10-16T21:08:52;14.20;99.90
32334;DHT22;18810;53.040;8.850;2022-10-16T21:16:13;14.20;99.90
32334;DHT22;18810;53.040;8.850;2022-10-16T21:21:05;14.20;99.90
32334;DHT22;18810;53.040;8.850;2022-10-16T21:23:32;14.20;99.90
32334;DHT22;18810;53.040;8.850;2022-10-16T21:25:58;14.20;99.90
32334;DHT22;18810;53.040;8.850;2022-10-16T21:28:31;14.30;99.90
32334;DHT22;18810;53.040;8.850;2022-10-16T21:33:23;14.40;99.90
32334;DHT22;18810;53.040;8.850;2022-10-16T21:35:49;14.90;99.90
32334;DHT22;18810;53.040;8.850;2022-10-16T21:40:41;14.40;99.90
32334;DHT22;18810;53.040;8.850;2022-10-16T21:43:06;14.50;99.90
32334;DHT22;18810;53.040;8.850;2022-10-16T21:45:33;14.30;99.90
32334;DHT22;18810;53.040;8.850;2022-10-16T21:47:59;14.70;99.90
32334;DHT22;18810;53.040;8.850;2022-10-16T21:50:24;14.30;99.90
32334;DHT22;18810;53.040;8.850;2022-10-16T21:52:50;14.80;99.90
32334;DHT22;18810;53.040;8.850;2022-10-16T21:55:16;14.30;99.90
32334;DHT22;18810;53.040;8.850;2022-10-16T21:57:41;14.10;99.90
32334;DHT22;18810;53.040;8.850;2022-10-16T22:00:08;14.00;99.90
32334;DHT22;18810;53.040;8.850;2022-10-16T22:05:00;13.90;99.90
32334;DHT22;18810;53.040;8.850;2022-10-16T22:07:26;14.00;99.90
32334;DHT22;18810;53.040;8.850;2022-10-16T22:09:51;14.50;99.90
32334;DHT22;18810;53.040;8.850;2022-10-16T22:12:17;15.70;99.90
32334;DHT22;18810;53.040;8.850;2022-10-16T22:17:10;13.90;99.90
32334;DHT22;18810;53.040;8.850;2022-10-16T22:26:54;13.80;99.90
32334;DHT22;18810;53.040;8.850;2022-10-16T22:29:19;13.80;99.90
32334;DHT22;18810;53.040;8.850;2022-10-16T22:31:45;13.80;99.90
32334;DHT22;18810;53.040;8.850;2022-10-16T22:34:12;15.50;99.90
32334;DHT22;18810;53.040;8.850;2022-10-16T22:39:04;13.80;99.90
32334;DHT22;18810;53.040;8.850;2022-10-16T22:46:25;13.90;99.90
32334;DHT22;18810;53.040;8.850;2022-10-16T22:48:51;13.80;99.90
32334;DHT22;18810;53.040;8.850;2022-10-16T22:51:17;13.90;99.90
32334;DHT22;18810;53.040;8.850;2022-10-16T22:53:45;13.90;99.90
32334;DHT22;18810;53.040;8.850;2022-10-16T22:56:11;13.90;99.90
32334;DHT22;18810;53.040;8.850;2022-10-16T22:58:37;13.80;99.90
32334;DHT22;18810;53.040;8.850;2022-10-16T23:01:09;13.80;99.90
32334;DHT22;18810;53.040;8.850;2022-10-16T23:03:35;13.80;99.90
32334;DHT22;18810;53.040;8.850;2022-10-16T23:06:03;13.80;99.90
32334;DHT22;18810;53.040;8.850;2022-10-16T23:08:28;13.70;99.90
32334;DHT22;18810;53.040;8.850;2022-10-16T23:10:54;13.80;99.90
32334;DHT22;18810;53.040;8.850;2022-10-16T23:13:25;13.90;99.90
32334;DHT22;18810;53.040;8.850;2022-10-16T23:15:51;13.90;99.90
32334;DHT22;18810;53.040;8.850;2022-10-16T23:18:16;14.00;99.90
32334;DHT22;18810;53.040;8.850;2022-10-16T23:20:42;14.00;99.90
32334;DHT22;18810;53.040;8.850;2022-10-16T23:23:11;13.80;99.90
32334;DHT22;18810;53.040;8.850;2022-10-16T23:25:44;13.80;99.90
32334;DHT22;18810;53.040;8.850;2022-10-16T23:28:11;13.80;99.90
32334;DHT22;18810;53.040;8.850;2022-10-16T23:30:37;13.90;99.90
32334;DHT22;18810;53.040;8.850;2022-10-16T23:33:03;13.80;99.90
32334;DHT22;18810;53.040;8.850;2022-10-16T23:35:29;13.80;99.90
32334;DHT22;18810;53.040;8.850;2022-10-16T23:37:54;13.80;99.90
32334;DHT22;18810;53.040;8.850;2022-10-16T23:40:22;13.90;99.90
32334;DHT22;18810;53.040;8.850;2022-10-16T23:42:48;14.00;99.90
32334;DHT22;18810;53.040;8.850;2022-10-16T23:45:14;13.90;99.90
32334;DHT22;18810;53.040;8.850;2022-10-16T23:47:39;13.90;99.90
32334;DHT22;18810;53.040;8.850;2022-10-16T23:50:07;14.00;99.90
32334;DHT22;18810;53.040;8.850;2022-10-16T23:52:33;13.90;99.90
32334;DHT22;18810;53.040;8.850;2022-10-16T23:54:58;13.90;99.90
32334;DHT22;18810;53.040;8.850;2022-10-16T23:57:24;13.70;99.90
32334;DHT22;18810;53.040;8.850;2022-10-16T23:59:50;13.70;99.90
